createdAt,value
2019-02-14T00:00:00.322Z,3.92
2019-02-14T00:02:28.788Z,3.93
2019-02-14T00:04:57.140Z,3.92
2019-02-14T00:07:25.536Z,3.92
2019-02-14T00:09:53.804Z,3.92
2019-02-14T00:12:22.051Z,3.93
2019-02-14T00:14:50.309Z,3.91
2019-02-14T00:17:18.668Z,3.90
2019-02-14T00:19:47.300Z,3.84
2019-02-14T00:22:15.668Z,3.84
2019-02-14T00:24:43.933Z,3.83
2019-02-14T00:27:12.174Z,3.84
2019-02-14T00:29:40.455Z,3.83
2019-02-14T00:32:09.403Z,3.78
2019-02-14T00:34:37.782Z,3.75
2019-02-14T00:37:06.048Z,3.75
2019-02-14T00:39:34.330Z,3.77
2019-02-14T00:42:02.765Z,3.78
2019-02-14T00:44:31.164Z,3.79
2019-02-14T00:46:59.481Z,3.79
2019-02-14T00:49:27.739Z,3.78
2019-02-14T00:51:56.033Z,3.78
2019-02-14T00:54:24.287Z,3.78
2019-02-14T00:56:52.654Z,3.76
2019-02-14T00:59:20.898Z,3.77
2019-02-14T01:01:49.149Z,3.77
2019-02-14T01:04:17.513Z,3.76
2019-02-14T01:06:45.761Z,3.75
2019-02-14T01:09:14.077Z,3.72
2019-02-14T01:11:42.302Z,3.74
2019-02-14T01:14:10.589Z,3.74
2019-02-14T01:16:38.909Z,3.74
2019-02-14T01:19:07.156Z,3.74
2019-02-14T01:21:35.431Z,3.73
2019-02-14T01:24:04.032Z,3.72
2019-02-14T01:26:32.357Z,3.71
2019-02-14T01:29:00.599Z,3.69
2019-02-14T01:31:28.879Z,3.65
2019-02-14T01:33:57.131Z,3.60
2019-02-14T01:36:25.419Z,3.60
2019-02-14T01:38:53.693Z,3.58
2019-02-14T01:41:22.003Z,3.57
2019-02-14T01:43:50.326Z,3.57
2019-02-14T01:46:18.584Z,3.56
2019-02-14T01:48:46.865Z,3.55
2019-02-14T01:51:15.172Z,3.57
2019-02-14T01:53:43.556Z,3.57
2019-02-14T01:56:11.864Z,3.56
2019-02-14T01:58:40.094Z,3.54
2019-02-14T02:01:08.534Z,3.51
2019-02-14T02:03:36.781Z,3.49
2019-02-14T02:06:05.043Z,3.46
2019-02-14T02:08:33.457Z,3.49
2019-02-14T02:11:01.719Z,3.49
2019-02-14T02:13:29.999Z,3.49
2019-02-14T02:15:58.435Z,3.47
2019-02-14T02:18:26.903Z,3.48
2019-02-14T02:20:55.365Z,3.48
2019-02-14T02:23:23.671Z,3.48
2019-02-14T02:25:51.953Z,3.47
2019-02-14T02:28:20.247Z,3.47
2019-02-14T02:30:48.672Z,3.44
2019-02-14T02:33:16.932Z,3.46
2019-02-14T02:35:45.190Z,3.46
2019-02-14T02:38:13.547Z,3.45
2019-02-14T02:40:41.814Z,3.43
2019-02-14T02:43:10.097Z,3.41
2019-02-14T02:45:38.368Z,3.38
2019-02-14T02:48:06.644Z,3.37
2019-02-14T02:50:34.927Z,3.35
2019-02-14T02:53:03.187Z,3.32
2019-02-14T02:55:31.509Z,3.30
2019-02-14T02:57:59.751Z,3.29
2019-02-14T03:00:30.830Z,3.26
2019-02-14T03:02:59.092Z,3.26
2019-02-14T03:05:27.355Z,3.24
2019-02-14T03:07:56.507Z,3.25
2019-02-14T03:10:24.814Z,3.23
2019-02-14T03:12:53.078Z,3.18
2019-02-14T03:15:21.331Z,3.14
2019-02-14T03:17:49.643Z,3.13
2019-02-14T03:20:17.923Z,3.11
2019-02-14T03:22:46.180Z,3.07
2019-02-14T03:25:17.354Z,3.07
2019-02-14T03:27:45.965Z,3.05
2019-02-14T03:30:17.432Z,3.03
2019-02-14T03:32:45.679Z,3.01
2019-02-14T03:35:13.947Z,3.04
2019-02-14T03:37:42.278Z,3.05
2019-02-14T03:40:12.261Z,3.06
2019-02-14T03:42:40.705Z,3.10
2019-02-14T03:45:21.060Z,3.14
2019-02-14T03:47:49.362Z,3.15
2019-02-14T03:50:17.665Z,3.17
2019-02-14T03:52:45.918Z,3.18
2019-02-14T03:55:14.183Z,3.18
2019-02-14T03:57:42.464Z,3.21
2019-02-14T04:00:13.495Z,3.21
2019-02-14T04:02:41.792Z,3.20
2019-02-14T04:05:10.056Z,3.20
2019-02-14T04:07:38.479Z,3.17
2019-02-14T04:10:14.392Z,3.17
2019-02-14T04:12:42.781Z,3.14
2019-02-14T04:15:15.504Z,3.12
2019-02-14T04:17:43.768Z,3.09
2019-02-14T04:20:12.173Z,3.08
2019-02-14T04:22:40.504Z,3.08
2019-02-14T04:25:09.798Z,3.08
2019-02-14T04:27:39.793Z,3.07
2019-02-14T04:30:13.153Z,3.03
2019-02-14T04:32:41.395Z,2.99
2019-02-14T04:35:09.686Z,2.99
2019-02-14T04:37:38.032Z,2.96
2019-02-14T04:40:09.385Z,2.94
2019-02-14T04:42:37.689Z,2.89
2019-02-14T04:45:07.313Z,2.84
2019-02-14T04:47:35.723Z,2.82
2019-02-14T04:50:04.633Z,2.79
2019-02-14T04:52:33.001Z,2.76
2019-02-14T04:55:01.348Z,2.74
2019-02-14T04:57:29.600Z,2.69
2019-02-14T04:59:57.882Z,2.70
2019-02-14T05:02:26.155Z,2.70
2019-02-14T05:04:54.456Z,2.67
2019-02-14T05:07:22.787Z,2.66
2019-02-14T05:09:51.150Z,2.64
2019-02-14T05:12:19.510Z,2.63
2019-02-14T05:14:47.754Z,2.63
2019-02-14T05:17:16.044Z,2.61
2019-02-14T05:19:44.301Z,2.59
2019-02-14T05:22:12.701Z,2.59
2019-02-14T05:24:41.524Z,2.57
2019-02-14T05:27:09.779Z,2.55
2019-02-14T05:29:38.079Z,2.53
2019-02-14T05:32:06.336Z,2.52
2019-02-14T05:34:34.618Z,2.48
2019-02-14T05:37:02.945Z,2.45
2019-02-14T05:39:31.218Z,2.42
2019-02-14T05:41:59.496Z,2.39
2019-02-14T05:44:27.756Z,2.37
2019-02-14T05:46:56.605Z,2.38
2019-02-14T05:49:24.927Z,2.37
2019-02-14T05:51:53.245Z,2.38
2019-02-14T05:54:21.508Z,2.38
2019-02-14T05:56:49.811Z,2.38
2019-02-14T05:59:18.135Z,2.39
2019-02-14T06:01:46.416Z,2.40
2019-02-14T06:04:14.729Z,2.35
2019-02-14T06:06:43.010Z,2.33
2019-02-14T06:09:11.276Z,2.34
2019-02-14T06:11:39.580Z,2.31
2019-02-14T06:14:07.845Z,2.31
2019-02-14T06:16:36.178Z,2.31
2019-02-14T06:19:04.550Z,2.30
2019-02-14T06:21:32.825Z,2.31
2019-02-14T06:24:01.114Z,2.31
2019-02-14T06:26:29.426Z,2.33
2019-02-14T06:28:57.746Z,2.33
2019-02-14T06:31:26.000Z,2.31
2019-02-14T06:33:54.259Z,2.30
2019-02-14T06:36:22.658Z,2.29
2019-02-14T06:38:50.915Z,2.29
2019-02-14T06:41:19.207Z,2.29
2019-02-14T06:43:47.521Z,2.29
2019-02-14T06:46:15.814Z,2.29
2019-02-14T06:48:44.068Z,2.28
2019-02-14T06:51:12.392Z,2.30
2019-02-14T06:53:40.683Z,2.30
2019-02-14T06:56:08.993Z,2.30
2019-02-14T06:58:37.290Z,2.30
2019-02-14T07:01:05.983Z,2.30
2019-02-14T07:03:34.238Z,2.29
2019-02-14T07:06:02.566Z,2.28
2019-02-14T07:08:31.613Z,2.28
2019-02-14T07:10:59.881Z,2.29
2019-02-14T07:13:28.337Z,2.28
2019-02-14T07:15:56.621Z,2.30
2019-02-14T07:18:24.899Z,2.29
2019-02-14T07:20:53.332Z,2.29
2019-02-14T07:23:21.583Z,2.30
2019-02-14T07:25:49.845Z,2.30
2019-02-14T07:28:18.196Z,2.31
2019-02-14T07:30:46.454Z,2.29
2019-02-14T07:33:14.716Z,2.29
2019-02-14T07:35:43.010Z,2.28
2019-02-14T07:38:11.277Z,2.29
2019-02-14T07:40:39.535Z,2.31
2019-02-14T07:43:07.858Z,2.30
2019-02-14T07:45:36.107Z,2.31
2019-02-14T07:48:04.531Z,2.35
2019-02-14T07:50:32.809Z,2.38
2019-02-14T07:53:01.054Z,2.39
2019-02-14T07:55:30.025Z,2.39
2019-02-14T07:57:58.285Z,2.40
2019-02-14T08:00:26.579Z,2.45
2019-02-14T08:02:56.373Z,2.46
2019-02-14T08:05:24.816Z,2.50
2019-02-14T08:07:53.067Z,2.55
2019-02-14T08:10:21.397Z,2.57
2019-02-14T08:12:49.705Z,2.61
2019-02-14T08:15:17.967Z,2.65
2019-02-14T08:17:46.244Z,2.68
2019-02-14T08:20:16.785Z,2.73
2019-02-14T08:22:45.061Z,2.76
2019-02-14T08:25:13.987Z,2.79
2019-02-14T08:27:42.240Z,2.83
2019-02-14T08:30:15.914Z,2.89
2019-02-14T08:32:44.165Z,2.91
2019-02-14T08:35:12.420Z,2.95
2019-02-14T08:37:45.688Z,3.00
2019-02-14T08:40:25.393Z,3.03
2019-02-14T08:42:53.682Z,3.08
2019-02-14T08:45:21.952Z,3.15
2019-02-14T08:47:50.219Z,3.22
2019-02-14T08:50:19.641Z,3.27
2019-02-14T08:52:47.836Z,3.33
2019-02-14T08:55:16.119Z,3.39
2019-02-14T08:57:44.398Z,3.45
2019-02-14T09:00:16.947Z,3.53
2019-02-14T09:02:45.238Z,3.59
2019-02-14T09:05:13.488Z,3.65
2019-02-14T09:07:41.760Z,3.72
2019-02-14T09:10:14.990Z,3.78
2019-02-14T09:12:43.296Z,3.82
2019-02-14T09:15:15.180Z,3.91
2019-02-14T09:17:43.582Z,3.98
2019-02-14T09:20:14.681Z,4.06
2019-02-14T09:22:42.925Z,4.12
2019-02-14T09:25:11.335Z,4.18
2019-02-14T09:27:39.561Z,4.24
2019-02-14T09:30:10.413Z,4.32
2019-02-14T09:32:38.667Z,4.40
2019-02-14T09:35:08.557Z,4.50
2019-02-14T09:37:37.613Z,4.59
2019-02-14T09:40:11.903Z,4.67
2019-02-14T09:42:40.221Z,4.74
2019-02-14T09:45:11.447Z,4.81
2019-02-14T09:47:39.718Z,4.93
2019-02-14T09:50:10.472Z,4.93
2019-02-14T09:52:39.782Z,5.03
2019-02-14T09:55:10.427Z,5.21
2019-02-14T09:57:39.205Z,5.21
2019-02-14T10:00:10.673Z,5.36
2019-02-14T10:02:38.989Z,5.43
2019-02-14T10:05:08.485Z,5.43
2019-02-14T10:07:36.772Z,5.48
2019-02-14T10:10:11.092Z,5.68
2019-02-14T10:12:39.349Z,5.77
2019-02-14T10:15:09.085Z,5.86
2019-02-14T10:17:37.363Z,5.86
2019-02-14T10:20:11.440Z,5.93
2019-02-14T10:22:39.832Z,6.01
2019-02-14T10:25:08.088Z,6.17
2019-02-14T10:27:37.109Z,6.35
2019-02-14T10:30:19.605Z,6.52
2019-02-14T10:32:47.876Z,6.67
2019-02-14T10:35:16.152Z,6.91
2019-02-14T10:37:44.551Z,7.12
2019-02-14T10:40:17.523Z,7.26
2019-02-14T10:42:45.784Z,7.40
2019-02-14T10:45:18.893Z,7.57
2019-02-14T10:47:47.248Z,7.71
2019-02-14T10:50:15.516Z,7.85
2019-02-14T10:52:43.788Z,8.04
2019-02-14T10:55:13.514Z,8.14
2019-02-14T10:57:41.768Z,8.30
2019-02-14T11:00:19.234Z,8.42
2019-02-14T11:02:47.726Z,8.50
2019-02-14T11:05:16.899Z,8.53
2019-02-14T11:07:45.217Z,8.57
2019-02-14T11:10:14.723Z,8.60
2019-02-14T11:12:43.023Z,8.69
2019-02-14T11:15:16.991Z,8.80
2019-02-14T11:17:45.809Z,8.86
2019-02-14T11:20:15.022Z,8.92
2019-02-14T11:22:43.274Z,9.04
2019-02-14T11:25:20.291Z,9.09
2019-02-14T11:27:49.386Z,9.17
2019-02-14T11:30:17.649Z,9.28
2019-02-14T11:32:45.927Z,9.39
2019-02-14T11:35:14.177Z,9.48
2019-02-14T11:37:42.463Z,9.61
2019-02-14T11:40:14.680Z,9.65
2019-02-14T11:42:43.015Z,9.76
2019-02-14T11:45:16.999Z,9.85
2019-02-14T11:47:45.286Z,9.88
2019-02-14T11:50:13.593Z,9.92
2019-02-14T11:52:41.833Z,10.01
2019-02-14T11:55:10.956Z,10.10
2019-02-14T11:57:39.209Z,10.21
2019-02-14T12:00:24.180Z,10.27
2019-02-14T12:02:55.563Z,10.25
2019-02-14T12:05:22.485Z,10.27
2019-02-14T12:07:50.877Z,10.24
2019-02-14T12:10:19.128Z,10.21
2019-02-14T12:12:47.403Z,10.20
2019-02-14T12:15:15.717Z,10.15
2019-02-14T12:17:44.014Z,10.11
2019-02-14T12:20:16.499Z,10.12
2019-02-14T12:22:47.197Z,10.13
2019-02-14T12:25:20.934Z,10.13
2019-02-14T12:27:49.185Z,10.10
2019-02-14T12:30:17.431Z,10.10
2019-02-14T12:32:45.762Z,10.09
2019-02-14T12:35:14.113Z,10.08
2019-02-14T12:37:42.387Z,10.10
2019-02-14T12:40:14.285Z,10.10
2019-02-14T12:42:42.568Z,10.08
2019-02-14T12:45:21.690Z,10.13
2019-02-14T12:47:49.552Z,10.13
2019-02-14T12:50:17.797Z,10.14
2019-02-14T12:52:46.071Z,10.13
2019-02-14T12:55:14.359Z,10.14
2019-02-14T12:57:42.613Z,10.18
2019-02-14T13:00:23.080Z,10.20
2019-02-14T13:02:51.335Z,10.21
2019-02-14T13:05:19.584Z,10.24
2019-02-14T13:07:48.760Z,10.25
2019-02-14T13:10:18.265Z,10.27
2019-02-14T13:12:46.536Z,10.28
2019-02-14T13:15:18.234Z,10.33
2019-02-14T13:17:46.491Z,10.35
2019-02-14T13:20:15.155Z,10.39
2019-02-14T13:22:43.403Z,10.42
2019-02-14T13:25:12.259Z,10.49
2019-02-14T13:27:40.499Z,10.54
2019-02-14T13:30:12.205Z,10.54
2019-02-14T13:32:40.439Z,10.53
2019-02-14T13:35:08.689Z,10.55
2019-02-14T13:37:36.972Z,10.56
2019-02-14T13:40:06.292Z,10.55
2019-02-14T13:42:34.532Z,10.58
2019-02-14T13:45:02.943Z,10.61
2019-02-14T13:47:31.192Z,10.64
2019-02-14T13:49:59.500Z,10.66
2019-02-14T13:52:28.561Z,10.65
2019-02-14T13:54:56.814Z,10.69
2019-02-14T13:57:25.067Z,10.74
2019-02-14T13:59:53.390Z,10.78
2019-02-14T14:02:21.627Z,10.82
2019-02-14T14:04:50.648Z,10.84
2019-02-14T14:07:19.908Z,10.81
2019-02-14T14:09:48.157Z,10.80
2019-02-14T14:12:16.433Z,10.82
2019-02-14T14:14:44.804Z,10.83
2019-02-14T14:17:13.047Z,10.83
2019-02-14T14:19:41.300Z,10.84
2019-02-14T14:22:09.585Z,10.85
2019-02-14T14:24:37.960Z,10.91
2019-02-14T14:27:06.239Z,10.92
2019-02-14T14:29:34.531Z,10.99
2019-02-14T14:32:02.920Z,11.08
2019-02-14T14:34:31.222Z,11.19
2019-02-14T14:36:59.447Z,11.28
2019-02-14T14:39:27.757Z,11.38
2019-02-14T14:41:56.002Z,11.46
2019-02-14T14:44:28.366Z,11.60
2019-02-14T14:46:56.692Z,11.71
2019-02-14T14:49:24.944Z,11.84
2019-02-14T14:51:53.225Z,11.97
2019-02-14T14:54:21.490Z,12.06
2019-02-14T14:56:49.767Z,12.13
2019-02-14T14:59:18.483Z,12.19
2019-02-14T15:01:46.761Z,12.24
2019-02-14T15:04:15.042Z,12.31
2019-02-14T15:06:43.447Z,12.33
2019-02-14T15:09:11.682Z,12.29
2019-02-14T15:11:39.985Z,12.27
2019-02-14T15:14:08.257Z,12.23
2019-02-14T15:16:36.499Z,12.12
2019-02-14T15:19:04.799Z,12.00
2019-02-14T15:21:33.083Z,11.89
2019-02-14T15:24:01.361Z,11.82
2019-02-14T15:26:29.794Z,11.72
2019-02-14T15:28:58.038Z,11.63
2019-02-14T15:31:26.323Z,11.52
2019-02-14T15:33:54.641Z,11.39
2019-02-14T15:36:24.224Z,11.28
2019-02-14T15:38:53.025Z,11.11
2019-02-14T15:41:21.356Z,11.03
2019-02-14T15:43:49.595Z,10.93
2019-02-14T15:46:17.869Z,10.84
2019-02-14T15:48:46.863Z,10.77
2019-02-14T15:51:16.179Z,10.67
2019-02-14T15:53:46.245Z,10.62
2019-02-14T15:56:14.605Z,10.56
2019-02-14T15:58:42.871Z,10.50
2019-02-14T16:01:11.122Z,10.43
2019-02-14T16:03:41.016Z,10.35
2019-02-14T16:06:10.134Z,10.25
2019-02-14T16:08:38.484Z,10.15
2019-02-14T16:11:06.822Z,10.09
2019-02-14T16:13:35.086Z,10.01
2019-02-14T16:16:03.403Z,9.94
2019-02-14T16:18:31.664Z,9.86
2019-02-14T16:21:00.055Z,9.78
2019-02-14T16:23:30.128Z,9.74
2019-02-14T16:25:58.357Z,9.70
2019-02-14T16:28:26.600Z,9.61
2019-02-14T16:30:56.897Z,9.56
2019-02-14T16:33:25.266Z,9.49
2019-02-14T16:35:53.513Z,9.41
2019-02-14T16:38:21.792Z,9.33
2019-02-14T16:40:50.172Z,9.25
2019-02-14T16:43:18.444Z,9.16
2019-02-14T16:45:46.686Z,9.05
2019-02-14T16:48:16.433Z,8.97
2019-02-14T16:50:44.803Z,8.89
2019-02-14T16:53:13.176Z,8.82
2019-02-14T16:55:41.430Z,8.76
2019-02-14T16:58:09.664Z,8.67
2019-02-14T17:00:37.973Z,8.60
2019-02-14T17:03:06.239Z,8.50
2019-02-14T17:05:34.516Z,8.40
2019-02-14T17:08:02.789Z,8.30
2019-02-14T17:10:36.608Z,8.23
2019-02-14T17:13:01.147Z,8.18
2019-02-14T17:15:29.397Z,8.12
2019-02-14T17:17:57.635Z,8.11
2019-02-14T17:20:26.679Z,8.07
2019-02-14T17:22:54.958Z,8.01
2019-02-14T17:25:23.239Z,7.97
2019-02-14T17:27:51.546Z,7.88
2019-02-14T17:30:19.832Z,7.78
2019-02-14T17:32:48.127Z,7.72
2019-02-14T17:35:16.371Z,7.68
2019-02-14T17:37:44.687Z,7.65
2019-02-14T17:40:13.069Z,7.63
2019-02-14T17:42:41.354Z,7.59
2019-02-14T17:45:10.058Z,7.54
2019-02-14T17:47:38.398Z,7.49
2019-02-14T17:50:07.663Z,7.43
2019-02-14T17:52:35.905Z,7.39
2019-02-14T17:55:05.374Z,7.34
2019-02-14T17:57:33.655Z,7.27
2019-02-14T18:00:01.919Z,7.18
2019-02-14T18:02:30.174Z,7.12
2019-02-14T18:04:58.438Z,7.06
2019-02-14T18:07:26.707Z,6.99
2019-02-14T18:09:54.954Z,6.95
2019-02-14T18:12:23.226Z,6.86
2019-02-14T18:14:51.476Z,6.77
2019-02-14T18:17:19.745Z,6.68
2019-02-14T18:19:48.291Z,6.63
2019-02-14T18:22:16.558Z,6.58
2019-02-14T18:24:45.148Z,6.54
2019-02-14T18:27:13.402Z,6.50
2019-02-14T18:29:41.684Z,6.45
2019-02-14T18:32:09.933Z,6.37
2019-02-14T18:34:38.212Z,6.31
2019-02-14T18:37:06.468Z,6.25
2019-02-14T18:39:34.719Z,6.22
2019-02-14T18:42:03.069Z,6.17
2019-02-14T18:44:31.336Z,6.12
2019-02-14T18:46:59.654Z,6.06
2019-02-14T18:49:27.935Z,6.02
2019-02-14T18:51:56.230Z,5.97
2019-02-14T18:54:24.542Z,5.88
2019-02-14T18:56:52.793Z,5.83
2019-02-14T18:59:21.098Z,5.82
2019-02-14T19:01:49.386Z,5.77
2019-02-14T19:04:17.796Z,5.70
2019-02-14T19:06:46.200Z,5.70
2019-02-14T19:09:14.410Z,5.66
2019-02-14T19:11:45.546Z,5.53
2019-02-14T19:14:13.799Z,5.44
2019-02-14T19:16:42.107Z,5.44
2019-02-14T19:19:10.397Z,5.38
2019-02-14T19:21:38.698Z,5.32
2019-02-14T19:24:07.139Z,5.35
2019-02-14T19:26:35.466Z,5.33
2019-02-14T19:29:03.726Z,5.33
2019-02-14T19:31:32.014Z,5.25
2019-02-14T19:34:00.263Z,5.22
2019-02-14T19:36:28.789Z,5.22
2019-02-14T19:38:57.502Z,5.12
2019-02-14T19:41:25.860Z,5.07
2019-02-14T19:43:54.155Z,4.99
2019-02-14T19:46:22.476Z,4.95
2019-02-14T19:48:50.764Z,4.96
2019-02-14T19:51:19.041Z,4.97
2019-02-14T19:53:47.424Z,4.97
2019-02-14T19:56:15.706Z,4.94
2019-02-14T19:58:44.044Z,4.93
2019-02-14T20:01:12.358Z,4.91
2019-02-14T20:03:40.709Z,4.96
2019-02-14T20:06:08.971Z,4.94
2019-02-14T20:08:37.249Z,4.94
2019-02-14T20:11:05.581Z,4.94
2019-02-14T20:13:33.889Z,4.96
2019-02-14T20:16:02.143Z,4.94
2019-02-14T20:18:30.485Z,4.94
2019-02-14T20:20:58.760Z,4.91
2019-02-14T20:23:27.363Z,4.87
2019-02-14T20:25:56.293Z,4.87
2019-02-14T20:28:24.550Z,4.83
2019-02-14T20:30:52.856Z,4.78
2019-02-14T20:33:21.115Z,4.78
2019-02-14T20:35:49.435Z,4.78
2019-02-14T20:38:17.723Z,4.74
2019-02-14T20:40:46.020Z,4.74
2019-02-14T20:43:14.287Z,4.65
2019-02-14T20:45:42.565Z,4.65
2019-02-14T20:48:10.847Z,4.66
2019-02-14T20:50:39.087Z,4.65
2019-02-14T20:53:09.366Z,4.59
2019-02-14T20:55:37.707Z,4.53
2019-02-14T20:58:05.954Z,4.53
2019-02-14T21:00:36.831Z,4.51
2019-02-14T21:03:05.105Z,4.48
2019-02-14T21:05:33.362Z,4.47
2019-02-14T21:08:01.675Z,4.45
2019-02-14T21:10:29.952Z,4.43
2019-02-14T21:12:58.223Z,4.39
2019-02-14T21:15:26.530Z,4.36
2019-02-14T21:17:54.827Z,4.36
2019-02-14T21:20:23.142Z,4.36
2019-02-14T21:22:51.423Z,4.30
2019-02-14T21:25:23.126Z,4.29
2019-02-14T21:27:50.090Z,4.24
2019-02-14T21:30:20.031Z,4.20
2019-02-14T21:32:48.297Z,4.16
2019-02-14T21:35:16.575Z,4.16
2019-02-14T21:37:44.893Z,4.16
2019-02-14T21:40:18.120Z,4.16
2019-02-14T21:42:46.352Z,4.15
2019-02-14T21:45:15.805Z,4.13
2019-02-14T21:47:44.141Z,4.14
2019-02-14T21:50:13.675Z,4.12
2019-02-14T21:52:41.956Z,4.11
2019-02-14T21:55:11.539Z,4.08
2019-02-14T21:57:39.786Z,4.05
2019-02-14T22:00:19.955Z,4.04
2019-02-14T22:02:48.815Z,4.04
2019-02-14T22:05:17.238Z,4.01
2019-02-14T22:07:45.507Z,3.99
2019-02-14T22:10:14.008Z,3.99
2019-02-14T22:12:43.571Z,3.96
2019-02-14T22:15:20.737Z,3.96
2019-02-14T22:17:49.032Z,3.93
2019-02-14T22:20:17.306Z,3.93
2019-02-14T22:22:45.685Z,3.91
2019-02-14T22:25:13.964Z,3.88
2019-02-14T22:27:42.230Z,3.85
2019-02-14T22:30:13.431Z,3.80
2019-02-14T22:32:41.798Z,3.77
2019-02-14T22:35:10.377Z,3.73
2019-02-14T22:37:38.619Z,3.70
2019-02-14T22:40:09.579Z,3.69
2019-02-14T22:42:46.212Z,3.68
2019-02-14T22:45:15.052Z,3.67
2019-02-14T22:47:44.506Z,3.63
2019-02-14T22:50:13.207Z,3.57
2019-02-14T22:52:41.476Z,3.51
2019-02-14T22:55:10.827Z,3.47
2019-02-14T22:57:39.072Z,3.43
2019-02-14T23:00:10.622Z,3.45
2019-02-14T23:02:38.860Z,3.45
2019-02-14T23:05:08.531Z,3.46
2019-02-14T23:07:36.826Z,3.48
2019-02-14T23:10:05.270Z,3.51
2019-02-14T23:12:33.542Z,3.52
2019-02-14T23:15:01.836Z,3.53
2019-02-14T23:17:30.155Z,3.50
2019-02-14T23:19:58.562Z,3.48
2019-02-14T23:22:26.839Z,3.48
2019-02-14T23:24:55.080Z,3.46
2019-02-14T23:27:23.368Z,3.45
2019-02-14T23:29:51.625Z,3.43
2019-02-14T23:32:19.931Z,3.42
2019-02-14T23:34:48.177Z,3.39
2019-02-14T23:37:16.422Z,3.37
2019-02-14T23:39:44.699Z,3.35
2019-02-14T23:42:13.001Z,3.35
2019-02-14T23:44:41.227Z,3.30
2019-02-14T23:47:09.599Z,3.29
2019-02-14T23:49:37.834Z,3.29
2019-02-14T23:52:06.900Z,3.27
2019-02-14T23:54:35.145Z,3.24
2019-02-14T23:57:03.407Z,3.23
2019-02-14T23:59:31.804Z,3.20
